TimeCDT,TemperatureF,Dew PointF,Humidity,Sea Level PressureIn,VisibilityMPH,Wind Direction,Wind SpeedMPH,Gust SpeedMPH,PrecipitationIn,Events,Conditions,WindDirDegrees,DateUTC
12:15 AM,35.6,23.0,60,30.24,10.0,NW,4.6,-,N/A,,Overcast,320,2013-03-27 05:15:00
12:35 AM,35.6,24.8,65,30.24,10.0,NW,3.5,-,N/A,,Overcast,320,2013-03-27 05:35:00
12:55 AM,35.6,24.8,65,30.24,10.0,NW,3.5,-,N/A,,Overcast,310,2013-03-27 05:55:00
1:15 AM,35.6,24.8,65,30.24,10.0,NW,3.5,-,N/A,,Overcast,320,2013-03-27 06:15:00
1:35 AM,33.8,24.8,70,30.24,10.0,NW,3.5,-,N/A,,Overcast,320,2013-03-27 06:35:00
1:55 AM,35.6,23.0,60,30.24,10.0,WNW,3.5,-,N/A,,Overcast,300,2013-03-27 06:55:00
2:15 AM,35.6,23.0,60,30.24,10.0,Calm,Calm,-,N/A,,Overcast,0,2013-03-27 07:15:00
2:35 AM,35.6,23.0,60,30.24,10.0,NW,3.5,-,N/A,,Overcast,310,2013-03-27 07:35:00
2:55 AM,33.8,23.0,65,30.24,10.0,NW,3.5,-,N/A,,Overcast,320,2013-03-27 07:55:00
3:15 AM,33.8,23.0,65,30.24,10.0,NW,3.5,-,N/A,,Overcast,310,2013-03-27 08:15:00
3:35 AM,33.8,23.0,65,30.24,10.0,NNW,3.5,-,N/A,,Overcast,330,2013-03-27 08:35:00
3:55 AM,33.8,23.0,65,30.24,10.0,NNW,3.5,-,N/A,,Overcast,330,2013-03-27 08:55:00
4:15 AM,33.8,23.0,65,30.25,10.0,Calm,Calm,-,N/A,,Overcast,0,2013-03-27 09:15:00
4:35 AM,33.8,19.4,56,30.25,10.0,WNW,3.5,-,N/A,,Overcast,300,2013-03-27 09:35:00
4:55 AM,33.8,21.2,60,30.25,10.0,WNW,3.5,-,N/A,,Overcast,300,2013-03-27 09:55:00
5:15 AM,33.8,21.2,60,30.25,10.0,Calm,Calm,-,N/A,,Overcast,0,2013-03-27 10:15:00
5:35 AM,33.8,23.0,65,30.25,10.0,Calm,Calm,-,N/A,,Overcast,0,2013-03-27 10:35:00
5:55 AM,33.8,21.2,60,30.25,10.0,NNW,3.5,-,N/A,,Overcast,330,2013-03-27 10:55:00
6:15 AM,33.8,23.0,65,30.26,10.0,Calm,Calm,-,N/A,,Overcast,0,2013-03-27 11:15:00
6:35 AM,32.0,21.2,64,30.26,10.0,NW,3.5,-,N/A,,Overcast,310,2013-03-27 11:35:00
6:55 AM,32.0,21.2,64,30.26,10.0,Calm,Calm,-,N/A,,Overcast,0,2013-03-27 11:55:00
7:15 AM,32.0,21.2,64,30.27,10.0,Calm,Calm,-,N/A,,Overcast,0,2013-03-27 12:15:00
7:35 AM,32.0,21.2,64,30.28,10.0,West,5.8,-,N/A,,Mostly Cloudy,280,2013-03-27 12:35:00
7:55 AM,32.0,21.2,64,30.28,10.0,WNW,3.5,-,N/A,,Scattered Clouds,290,2013-03-27 12:55:00
8:15 AM,33.8,21.2,60,30.29,10.0,WNW,3.5,-,N/A,,Clear,300,2013-03-27 13:15:00
8:55 AM,35.6,19.4,52,30.29,10.0,NNW,6.9,-,N/A,,Clear,330,2013-03-27 13:55:00
9:15 AM,37.4,17.6,45,30.29,10.0,NNW,6.9,-,N/A,,Clear,340,2013-03-27 14:15:00
9:35 AM,37.4,17.6,45,30.28,10.0,NNW,6.9,-,N/A,,Clear,340,2013-03-27 14:35:00
9:55 AM,37.4,17.6,45,30.29,10.0,NW,9.2,-,N/A,,Mostly Cloudy,320,2013-03-27 14:55:00
10:15 AM,39.2,17.6,42,30.29,10.0,NW,10.4,-,N/A,,Overcast,320,2013-03-27 15:15:00
10:35 AM,39.2,15.8,39,30.28,10.0,NW,6.9,-,N/A,,Overcast,310,2013-03-27 15:35:00
10:55 AM,39.2,17.6,42,30.29,10.0,NNW,11.5,-,N/A,,Mostly Cloudy,330,2013-03-27 15:55:00
11:15 AM,41.0,15.8,36,30.29,10.0,WNW,10.4,-,N/A,,Mostly Cloudy,300,2013-03-27 16:15:00
11:35 AM,41.0,17.6,39,30.29,10.0,WNW,9.2,-,N/A,,Scattered Clouds,290,2013-03-27 16:35:00
12:15 PM,41.0,17.6,39,30.28,10.0,WNW,6.9,16.1,N/A,,Scattered Clouds,300,2013-03-27 17:15:00
12:35 PM,41.0,17.6,39,30.28,10.0,NW,5.8,-,N/A,,Scattered Clouds,310,2013-03-27 17:35:00
12:55 PM,41.0,17.6,39,30.28,10.0,WNW,6.9,-,N/A,,Scattered Clouds,300,2013-03-27 17:55:00
1:15 PM,41.0,17.6,39,30.28,10.0,NW,9.2,-,N/A,,Clear,320,2013-03-27 18:15:00
1:35 PM,41.0,17.6,39,30.28,10.0,NW,8.1,-,N/A,,Clear,320,2013-03-27 18:35:00
1:55 PM,42.8,17.6,36,30.27,10.0,West,8.1,-,N/A,,Clear,280,2013-03-27 18:55:00
2:15 PM,42.8,17.6,36,30.27,10.0,West,9.2,-,N/A,,Scattered Clouds,280,2013-03-27 19:15:00
2:35 PM,42.8,15.8,34,30.27,10.0,NNW,4.6,-,N/A,,Scattered Clouds,330,2013-03-27 19:35:00
2:55 PM,42.8,17.6,36,30.27,10.0,WNW,8.1,-,N/A,,Scattered Clouds,290,2013-03-27 19:55:00
3:15 PM,42.8,15.8,34,30.26,10.0,WNW,4.6,-,N/A,,Scattered Clouds,300,2013-03-27 20:15:00
3:35 PM,42.8,17.6,36,30.26,10.0,West,13.8,-,N/A,,Scattered Clouds,270,2013-03-27 20:35:00
3:55 PM,42.8,17.6,36,30.26,10.0,West,8.1,17.3,N/A,,Scattered Clouds,270,2013-03-27 20:55:00
4:15 PM,42.8,17.6,36,30.26,10.0,WNW,6.9,-,N/A,,Clear,290,2013-03-27 21:15:00
4:35 PM,42.8,19.4,39,30.26,10.0,West,8.1,-,N/A,,Clear,270,2013-03-27 21:35:00
4:55 PM,42.8,17.6,36,30.25,10.0,West,10.4,-,N/A,,Clear,270,2013-03-27 21:55:00
5:15 PM,42.8,19.4,39,30.26,10.0,West,10.4,-,N/A,,Clear,270,2013-03-27 22:15:00
5:35 PM,41.0,21.2,45,30.26,10.0,WSW,11.5,-,N/A,,Clear,250,2013-03-27 22:35:00
5:55 PM,41.0,21.2,45,30.26,10.0,West,10.4,-,N/A,,Clear,260,2013-03-27 22:55:00
6:15 PM,41.0,21.2,45,30.25,10.0,West,13.8,-,N/A,,Clear,260,2013-03-27 23:15:00
6:35 PM,41.0,19.4,42,30.25,10.0,West,8.1,-,N/A,,Clear,260,2013-03-27 23:35:00
6:55 PM,39.2,21.2,49,30.26,10.0,West,9.2,-,N/A,,Clear,270,2013-03-27 23:55:00
7:15 PM,37.4,21.2,52,30.26,10.0,West,8.1,-,N/A,,Clear,260,2013-03-28 00:15:00
7:35 PM,37.4,21.2,52,30.26,10.0,West,6.9,-,N/A,,Clear,260,2013-03-28 00:35:00
7:55 PM,35.6,19.4,52,30.26,10.0,West,6.9,-,N/A,,Clear,260,2013-03-28 00:55:00
8:15 PM,35.6,19.4,52,30.26,10.0,West,6.9,-,N/A,,Clear,260,2013-03-28 01:15:00
8:35 PM,35.6,19.4,52,30.26,10.0,West,6.9,-,N/A,,Clear,270,2013-03-28 01:35:00
8:55 PM,35.6,19.4,52,30.26,10.0,West,5.8,-,N/A,,Clear,280,2013-03-28 01:55:00
9:15 PM,33.8,19.4,56,30.27,10.0,West,4.6,-,N/A,,Clear,280,2013-03-28 02:15:00
9:35 PM,33.8,19.4,56,30.27,10.0,West,4.6,-,N/A,,Clear,280,2013-03-28 02:35:00
9:55 PM,33.8,19.4,56,30.27,10.0,West,4.6,-,N/A,,Clear,280,2013-03-28 02:55:00
10:15 PM,33.8,17.6,52,30.28,10.0,WNW,4.6,-,N/A,,Clear,290,2013-03-28 03:15:00
10:35 PM,33.8,17.6,52,30.28,10.0,WNW,4.6,-,N/A,,Clear,290,2013-03-28 03:35:00
10:55 PM,33.8,19.4,56,30.28,10.0,West,5.8,-,N/A,,Clear,280,2013-03-28 03:55:00
11:15 PM,33.8,17.6,52,30.28,10.0,West,5.8,-,N/A,,Clear,280,2013-03-28 04:15:00
11:35 PM,32.0,17.6,55,30.28,10.0,West,4.6,-,N/A,,Clear,280,2013-03-28 04:35:00
11:55 PM,33.8,17.6,52,30.28,10.0,WNW,5.8,-,N/A,,Clear,300,2013-03-28 04:55:00